createdAt,value
2023-04-13T00:01:11.163Z,6.65
2023-04-13T00:03:39.140Z,6.57
2023-04-13T00:06:06.736Z,6.54
2023-04-13T00:08:35.788Z,6.64
2023-04-13T00:11:04.292Z,6.67
2023-04-13T00:13:30.879Z,6.64
2023-04-13T00:15:57.353Z,6.56
2023-04-13T00:18:24.244Z,6.66
2023-04-13T00:20:50.736Z,6.63
2023-04-13T00:23:18.009Z,6.43
2023-04-13T00:25:44.559Z,6.61
2023-04-13T00:28:11.803Z,6.61
2023-04-13T00:30:38.295Z,6.60
2023-04-13T00:33:04.990Z,6.55
2023-04-13T00:35:31.926Z,6.60
2023-04-13T00:37:58.792Z,6.53
2023-04-13T00:40:25.300Z,6.55
2023-04-13T00:42:51.923Z,6.56
2023-04-13T00:45:19.778Z,6.54
2023-04-13T00:47:48.580Z,6.51
2023-04-13T00:50:18.418Z,6.51
2023-04-13T00:52:45.337Z,6.50
2023-04-13T00:55:12.297Z,6.33
2023-04-13T00:57:40.764Z,6.50
2023-04-13T01:00:09.518Z,6.47
2023-04-13T01:02:42.117Z,6.44
2023-04-13T01:05:12.267Z,6.48
2023-04-13T01:07:59.308Z,6.23
2023-04-13T01:10:54.339Z,6.45
2023-04-13T01:13:52.116Z,6.44
2023-04-13T01:16:30.590Z,6.41
2023-04-13T01:18:57.457Z,6.40
2023-04-13T01:21:26.155Z,6.33
2023-04-13T01:23:58.782Z,6.34
2023-04-13T01:26:49.012Z,6.16
2023-04-13T01:29:15.818Z,6.28
2023-04-13T01:31:42.985Z,6.21
2023-04-13T01:34:09.797Z,6.00
2023-04-13T01:36:39.877Z,6.15
2023-04-13T01:39:06.309Z,6.19
2023-04-13T01:41:32.721Z,6.07
2023-04-13T01:43:59.557Z,6.12
2023-04-13T01:46:29.866Z,6.10
2023-04-13T01:49:01.641Z,5.98
2023-04-13T01:51:34.605Z,6.03
2023-04-13T01:54:12.893Z,5.96
2023-04-13T01:56:40.688Z,5.88
2023-04-13T01:59:07.718Z,5.81
2023-04-13T02:01:34.335Z,5.71
2023-04-13T02:04:02.739Z,5.61
2023-04-13T02:06:29.649Z,5.47
2023-04-13T02:08:56.115Z,5.55
2023-04-13T02:11:22.655Z,5.48
2023-04-13T02:13:49.616Z,5.29
2023-04-13T02:16:16.186Z,5.41
2023-04-13T02:18:42.938Z,5.35
2023-04-13T02:21:09.719Z,5.32
2023-04-13T02:23:37.785Z,5.27
2023-04-13T02:26:06.757Z,5.22
2023-04-13T02:28:33.603Z,5.02
2023-04-13T02:31:00.330Z,5.15
2023-04-13T02:33:32.753Z,4.91
2023-04-13T02:36:00.379Z,5.03
2023-04-13T02:38:30.561Z,4.83
2023-04-13T02:41:01.905Z,4.89
2023-04-13T02:43:31.323Z,4.74
2023-04-13T02:45:58.192Z,4.74
2023-04-13T02:48:25.662Z,4.62
2023-04-13T02:50:53.320Z,4.72
2023-04-13T02:53:20.032Z,4.58
2023-04-13T02:55:50.129Z,4.58
2023-04-13T02:58:16.619Z,4.57
2023-04-13T03:00:44.498Z,4.54
2023-04-13T03:03:11.086Z,4.41
2023-04-13T03:05:38.744Z,4.61
2023-04-13T03:08:05.274Z,4.56
2023-04-13T03:10:31.846Z,4.57
2023-04-13T03:12:58.772Z,4.50
2023-04-13T03:15:25.249Z,4.54
2023-04-13T03:17:51.775Z,4.50
2023-04-13T03:20:20.709Z,4.50
2023-04-13T03:22:47.124Z,4.50
2023-04-13T03:25:13.528Z,4.51
2023-04-13T03:27:40.003Z,4.48
2023-04-13T03:30:07.651Z,4.41
2023-04-13T03:32:34.471Z,4.45
2023-04-13T03:35:01.799Z,4.48
2023-04-13T03:37:30.495Z,4.38
2023-04-13T03:39:58.406Z,4.48
2023-04-13T03:42:24.931Z,4.46
2023-04-13T03:44:51.465Z,4.57
2023-04-13T03:47:18.093Z,4.50
2023-04-13T03:49:44.575Z,4.42
2023-04-13T03:52:11.092Z,4.61
2023-04-13T03:54:38.129Z,4.50
2023-04-13T03:57:05.054Z,4.55
2023-04-13T03:59:31.559Z,4.66
2023-04-13T04:01:58.526Z,4.60
2023-04-13T04:04:25.384Z,4.77
2023-04-13T04:06:52.109Z,4.84
2023-04-13T04:09:18.557Z,4.89
2023-04-13T04:11:45.524Z,4.94
2023-04-13T04:14:12.015Z,4.86
2023-04-13T04:16:38.543Z,5.05
2023-04-13T04:19:05.026Z,5.07
2023-04-13T04:21:34.345Z,5.11
2023-04-13T04:24:06.112Z,4.94
2023-04-13T04:26:32.644Z,5.18
2023-04-13T04:29:07.087Z,5.20
2023-04-13T04:31:36.870Z,5.09
2023-04-13T04:34:04.296Z,5.21
2023-04-13T04:36:30.901Z,5.22
2023-04-13T04:39:02.147Z,5.30
2023-04-13T04:41:29.313Z,5.00
2023-04-13T04:43:56.720Z,5.30
2023-04-13T04:46:27.260Z,5.42
2023-04-13T04:48:54.200Z,5.58
2023-04-13T04:51:24.799Z,5.43
2023-04-13T04:53:52.911Z,5.62
2023-04-13T04:56:19.664Z,5.71
2023-04-13T04:58:46.327Z,5.78
2023-04-13T05:01:12.888Z,5.69
2023-04-13T05:03:39.381Z,5.88
2023-04-13T05:06:06.258Z,5.80
2023-04-13T05:08:33.058Z,6.03
2023-04-13T05:10:59.596Z,6.05
2023-04-13T05:13:26.068Z,6.07
2023-04-13T05:15:52.611Z,6.14
2023-04-13T05:18:19.204Z,6.25
2023-04-13T05:20:45.872Z,6.35
2023-04-13T05:23:12.534Z,6.36
2023-04-13T05:25:39.512Z,6.54
2023-04-13T05:28:06.280Z,6.66
2023-04-13T05:30:33.005Z,6.75
2023-04-13T05:33:02.064Z,6.85
2023-04-13T05:35:28.584Z,6.91
2023-04-13T05:37:57.063Z,7.00
2023-04-13T05:40:23.862Z,7.09
2023-04-13T05:42:50.243Z,7.18
2023-04-13T05:45:16.790Z,7.05
2023-04-13T05:47:45.371Z,7.31
2023-04-13T05:50:12.847Z,7.38
2023-04-13T05:52:39.312Z,7.41
2023-04-13T05:55:06.926Z,7.54
2023-04-13T05:57:33.390Z,7.55
2023-04-13T05:59:59.839Z,7.69
2023-04-13T06:02:26.795Z,7.76
2023-04-13T06:04:55.190Z,7.93
2023-04-13T06:07:22.254Z,7.79
2023-04-13T06:09:48.813Z,8.05
2023-04-13T06:12:15.959Z,8.19
2023-04-13T06:14:43.015Z,8.24
2023-04-13T06:17:09.568Z,8.15
2023-04-13T06:19:36.182Z,8.26
2023-04-13T06:22:02.682Z,8.30
2023-04-13T06:24:29.139Z,8.35
2023-04-13T06:26:55.581Z,8.44
2023-04-13T06:29:22.047Z,8.50
2023-04-13T06:31:48.529Z,8.55
2023-04-13T06:34:15.439Z,8.61
2023-04-13T06:36:41.970Z,8.64
2023-04-13T06:39:09.223Z,8.69
2023-04-13T06:41:36.014Z,8.65
2023-04-13T06:44:02.519Z,8.69
2023-04-13T06:46:38.522Z,8.70
2023-04-13T06:49:05.305Z,8.82
2023-04-13T06:51:31.976Z,8.73
2023-04-13T06:53:58.427Z,8.82
2023-04-13T06:56:24.972Z,8.86
2023-04-13T06:58:51.566Z,8.87
2023-04-13T07:01:18.047Z,8.97
2023-04-13T07:03:44.799Z,9.01
2023-04-13T07:06:11.630Z,9.04
2023-04-13T07:08:38.172Z,9.10
2023-04-13T07:11:04.784Z,9.17
2023-04-13T07:13:34.207Z,9.23
2023-04-13T07:16:00.857Z,9.31
2023-04-13T07:18:27.326Z,9.32
2023-04-13T07:20:53.743Z,9.19
2023-04-13T07:23:20.224Z,9.42
2023-04-13T07:25:46.873Z,9.53
2023-04-13T07:28:13.383Z,9.52
2023-04-13T07:30:46.817Z,9.50
2023-04-13T07:33:13.853Z,9.70
2023-04-13T07:35:40.664Z,9.69
2023-04-13T07:38:07.234Z,9.86
2023-04-13T07:40:35.742Z,9.74
2023-04-13T07:43:10.117Z,10.00
2023-04-13T07:45:36.670Z,10.23
2023-04-13T07:48:03.318Z,10.21
2023-04-13T07:50:30.061Z,10.47
2023-04-13T07:52:56.645Z,10.44
2023-04-13T07:55:23.141Z,10.60
2023-04-13T07:57:49.681Z,10.50
2023-04-13T08:00:18.331Z,10.64
2023-04-13T08:02:44.973Z,10.46
2023-04-13T08:05:12.477Z,10.75
2023-04-13T08:07:38.983Z,10.81
2023-04-13T08:10:06.660Z,10.81
2023-04-13T08:12:33.193Z,10.66
2023-04-13T08:14:59.587Z,10.87
2023-04-13T08:17:26.452Z,10.90
2023-04-13T08:19:52.934Z,10.99
2023-04-13T08:22:19.830Z,10.98
2023-04-13T08:24:46.338Z,11.03
2023-04-13T08:27:12.856Z,11.11
2023-04-13T08:29:39.328Z,11.15
2023-04-13T08:32:06.148Z,11.12
2023-04-13T08:34:32.667Z,11.09
2023-04-13T08:36:59.147Z,11.10
2023-04-13T08:39:25.998Z,10.85
2023-04-13T08:41:52.557Z,11.09
2023-04-13T08:44:19.122Z,11.16
2023-04-13T08:46:46.646Z,11.15
2023-04-13T08:49:13.262Z,11.08
2023-04-13T08:51:42.081Z,11.22
2023-04-13T08:54:08.754Z,11.29
2023-04-13T08:56:46.367Z,11.33
2023-04-13T08:59:16.020Z,11.36
2023-04-13T09:01:45.510Z,11.40
2023-04-13T09:04:14.149Z,11.48
2023-04-13T09:06:43.007Z,11.81
2023-04-13T09:09:14.193Z,12.02
2023-04-13T09:11:42.246Z,12.13
2023-04-13T09:14:09.995Z,12.32
2023-04-13T09:16:41.097Z,12.46
2023-04-13T09:19:11.403Z,12.63
2023-04-13T09:21:41.045Z,12.87
2023-04-13T09:24:08.515Z,13.07
2023-04-13T09:26:42.966Z,13.30
2023-04-13T09:29:14.141Z,13.50
2023-04-13T09:31:42.920Z,13.55
2023-04-13T09:34:11.245Z,13.61
2023-04-13T09:36:46.614Z,13.79
2023-04-13T09:39:28.385Z,13.95
2023-04-13T09:41:55.354Z,14.04
2023-04-13T09:44:28.189Z,13.85
2023-04-13T09:47:02.089Z,14.27
2023-04-13T09:49:42.732Z,14.36
2023-04-13T09:52:25.101Z,14.45
2023-04-13T09:54:57.772Z,14.63
2023-04-13T09:57:32.095Z,14.85
2023-04-13T10:00:01.615Z,14.92
2023-04-13T10:02:28.743Z,14.60
2023-04-13T10:04:55.828Z,14.78
2023-04-13T10:07:26.729Z,14.68
2023-04-13T10:09:57.961Z,14.58
2023-04-13T10:12:26.878Z,14.74
2023-04-13T10:15:01.575Z,14.99
2023-04-13T10:17:56.001Z,15.50
2023-04-13T10:20:23.007Z,15.81
2023-04-13T10:22:50.885Z,16.07
2023-04-13T10:25:31.971Z,16.13
2023-04-13T10:28:00.639Z,16.22
2023-04-13T10:30:28.120Z,16.15
2023-04-13T10:33:05.795Z,15.93
2023-04-13T10:35:37.055Z,15.79
2023-04-13T10:38:04.261Z,15.61
2023-04-13T10:40:42.192Z,15.25
2023-04-13T10:43:08.697Z,15.32
2023-04-13T10:45:37.753Z,15.39
2023-04-13T10:48:04.598Z,15.41
2023-04-13T10:50:31.396Z,15.28
2023-04-13T10:53:05.655Z,15.20
2023-04-13T10:55:35.567Z,15.10
2023-04-13T10:58:03.260Z,15.06
2023-04-13T11:00:42.325Z,14.60
2023-04-13T11:03:12.549Z,14.60
2023-04-13T11:05:39.799Z,14.39
2023-04-13T11:08:06.783Z,14.14
2023-04-13T11:10:33.557Z,14.09
2023-04-13T11:13:00.091Z,14.15
2023-04-13T11:15:30.506Z,14.24
2023-04-13T11:17:58.899Z,14.28
2023-04-13T11:20:37.649Z,14.35
2023-04-13T11:23:06.383Z,14.31
2023-04-13T11:25:36.168Z,14.67
2023-04-13T11:28:04.079Z,14.61
2023-04-13T11:30:32.392Z,14.58
2023-04-13T11:33:01.321Z,14.48
2023-04-13T11:35:28.047Z,14.24
2023-04-13T11:37:56.019Z,14.27
2023-04-13T11:40:27.323Z,13.95
2023-04-13T11:42:55.850Z,13.96
2023-04-13T11:45:25.821Z,13.90
2023-04-13T11:47:53.358Z,14.07
2023-04-13T11:50:21.457Z,14.06
2023-04-13T11:52:51.279Z,14.25
2023-04-13T11:55:23.809Z,14.33
2023-04-13T11:57:52.967Z,14.61
2023-04-13T12:00:27.252Z,14.67
2023-04-13T12:05:27.862Z,15.40
2023-04-13T12:07:57.536Z,15.48
2023-04-13T12:10:39.097Z,15.82
2023-04-13T12:16:04.947Z,16.00
2023-04-13T12:18:37.230Z,16.22
2023-04-13T12:21:05.706Z,16.30
2023-04-13T12:23:32.857Z,16.41
2023-04-13T12:28:49.850Z,16.64
2023-04-13T12:31:16.475Z,16.68
2023-04-13T12:33:43.005Z,16.85
2023-04-13T12:36:12.565Z,16.44
2023-04-13T12:38:39.324Z,17.08
2023-04-13T12:41:09.928Z,17.13
2023-04-13T12:43:36.589Z,17.25
2023-04-13T12:46:03.086Z,17.04
2023-04-13T12:48:30.813Z,17.10
2023-04-13T12:50:57.267Z,17.30
2023-04-13T12:53:23.823Z,17.36
2023-04-13T12:55:50.405Z,17.21
2023-04-13T12:58:16.878Z,17.23
2023-04-13T13:00:43.351Z,17.10
2023-04-13T13:03:14.950Z,16.99
2023-04-13T13:05:41.979Z,16.85
2023-04-13T13:08:09.191Z,16.61
2023-04-13T13:10:37.318Z,16.67
2023-04-13T13:13:04.149Z,16.51
2023-04-13T13:15:31.880Z,16.34
2023-04-13T13:18:00.767Z,16.29
2023-04-13T13:20:27.533Z,16.36
2023-04-13T13:22:54.171Z,16.29
2023-04-13T13:25:21.157Z,16.45
2023-04-13T13:30:18.140Z,16.37
2023-04-13T13:32:44.748Z,16.46
2023-04-13T13:35:11.691Z,16.52
2023-04-13T13:37:39.668Z,16.53
2023-04-13T13:40:12.811Z,16.40
2023-04-13T13:42:50.821Z,16.31
2023-04-13T13:45:18.673Z,16.57
2023-04-13T13:47:57.783Z,16.36
2023-04-13T13:50:24.383Z,16.44
2023-04-13T13:53:03.290Z,16.51
2023-04-13T13:55:31.485Z,16.75
2023-04-13T13:57:58.166Z,16.47
2023-04-13T14:00:25.742Z,16.71
2023-04-13T14:02:53.035Z,16.42
2023-04-13T14:05:21.750Z,16.48
2023-04-13T14:07:48.266Z,16.38
2023-04-13T14:10:14.732Z,16.25
2023-04-13T14:12:45.152Z,15.96
2023-04-13T14:15:12.876Z,15.60
2023-04-13T14:17:40.310Z,15.06
2023-04-13T14:20:11.762Z,14.71
2023-04-13T14:22:39.719Z,14.25
2023-04-13T14:25:07.405Z,13.83
2023-04-13T14:27:34.023Z,13.34
2023-04-13T14:30:01.884Z,12.99
2023-04-13T14:32:29.076Z,12.58
2023-04-13T14:34:59.940Z,12.37
2023-04-13T14:37:29.645Z,12.19
2023-04-13T14:39:56.103Z,12.10
2023-04-13T14:42:24.521Z,12.15
2023-04-13T14:44:51.872Z,12.23
2023-04-13T14:47:19.092Z,12.36
2023-04-13T14:49:46.378Z,12.75
2023-04-13T14:52:14.219Z,12.98
2023-04-13T14:54:40.752Z,13.29
2023-04-13T14:57:07.283Z,13.50
2023-04-13T14:59:33.763Z,13.65
2023-04-13T15:02:00.883Z,13.94
2023-04-13T15:04:28.146Z,14.10
2023-04-13T15:06:54.756Z,14.15
2023-04-13T15:09:21.912Z,14.36
2023-04-13T15:11:49.184Z,14.46
2023-04-13T15:14:15.634Z,14.49
2023-04-13T15:16:42.136Z,14.76
2023-04-13T15:19:08.796Z,14.91
2023-04-13T15:21:36.213Z,14.99
2023-04-13T15:24:02.733Z,14.83
2023-04-13T15:26:29.781Z,15.08
2023-04-13T15:28:56.244Z,14.97
2023-04-13T15:31:22.938Z,14.97
2023-04-13T15:33:49.332Z,14.88
2023-04-13T15:36:16.566Z,14.88
2023-04-13T15:38:43.199Z,14.94
2023-04-13T15:41:11.090Z,14.96
2023-04-13T15:43:38.480Z,15.07
2023-04-13T15:46:05.157Z,15.25
2023-04-13T15:48:31.893Z,15.36
2023-04-13T15:51:00.998Z,15.19
2023-04-13T15:53:28.058Z,15.21
2023-04-13T15:55:54.536Z,15.43
2023-04-13T15:58:21.664Z,15.47
2023-04-13T16:01:03.654Z,15.51
2023-04-13T16:03:30.996Z,15.73
2023-04-13T16:05:57.743Z,15.90
2023-04-13T16:08:24.314Z,15.84
2023-04-13T16:10:51.175Z,15.98
2023-04-13T16:13:20.162Z,16.22
2023-04-13T16:15:55.580Z,16.12
2023-04-13T16:18:30.050Z,16.13
2023-04-13T16:21:02.357Z,15.85
2023-04-13T16:23:29.671Z,15.75
2023-04-13T16:25:56.101Z,15.62
2023-04-13T16:28:22.655Z,15.41
2023-04-13T16:30:49.449Z,15.22
2023-04-13T16:33:16.065Z,14.83
2023-04-13T16:35:42.555Z,14.49
2023-04-13T16:38:09.007Z,14.08
2023-04-13T16:40:35.983Z,13.58
2023-04-13T16:43:04.162Z,13.24
2023-04-13T16:45:30.880Z,12.91
2023-04-13T16:47:57.383Z,12.52
2023-04-13T16:50:28.513Z,12.19
2023-04-13T16:52:56.648Z,11.74
2023-04-13T16:55:23.263Z,11.64
2023-04-13T16:57:50.548Z,11.45
2023-04-13T17:00:18.079Z,11.34
2023-04-13T17:02:44.897Z,11.11
2023-04-13T17:05:12.549Z,11.13
2023-04-13T17:07:40.981Z,11.15
2023-04-13T17:10:08.843Z,11.24
2023-04-13T17:12:35.725Z,11.36
2023-04-13T17:15:02.233Z,11.49
2023-04-13T17:17:28.731Z,11.44
2023-04-13T17:19:55.423Z,11.71
2023-04-13T17:22:22.549Z,11.78
2023-04-13T17:24:49.544Z,11.90
2023-04-13T17:27:19.106Z,11.95
2023-04-13T17:29:45.614Z,11.94
2023-04-13T17:32:12.216Z,11.94
2023-04-13T17:34:38.821Z,11.83
2023-04-13T17:37:06.835Z,11.96
2023-04-13T17:39:35.093Z,11.88
2023-04-13T17:42:02.060Z,11.84
2023-04-13T17:44:28.618Z,11.81
2023-04-13T17:46:55.086Z,11.71
2023-04-13T17:49:22.068Z,11.64
2023-04-13T17:51:49.007Z,11.48
2023-04-13T17:54:21.126Z,11.46
2023-04-13T17:56:47.553Z,10.99
2023-04-13T17:59:16.788Z,11.12
2023-04-13T18:01:43.736Z,11.18
2023-04-13T18:04:14.653Z,11.08
2023-04-13T18:06:41.343Z,11.01
2023-04-13T18:09:18.226Z,10.58
2023-04-13T18:11:44.776Z,10.82
2023-04-13T18:14:15.982Z,10.72
2023-04-13T18:16:42.664Z,10.62
2023-04-13T18:19:09.199Z,10.53
2023-04-13T18:21:37.054Z,10.43
2023-04-13T18:24:03.924Z,10.34
2023-04-13T18:26:30.549Z,10.32
2023-04-13T18:28:56.978Z,10.19
2023-04-13T18:31:23.680Z,10.27
2023-04-13T18:33:50.269Z,10.27
2023-04-13T18:36:17.836Z,10.04
2023-04-13T18:38:45.499Z,10.21
2023-04-13T18:41:12.771Z,10.33
2023-04-13T18:43:39.788Z,10.04
2023-04-13T18:46:07.740Z,10.37
2023-04-13T18:48:34.647Z,10.40
2023-04-13T18:51:04.025Z,10.34
2023-04-13T18:53:30.997Z,10.43
2023-04-13T18:55:58.254Z,10.44
2023-04-13T18:58:24.709Z,10.43
2023-04-13T19:00:51.287Z,10.28
2023-04-13T19:03:20.137Z,10.06
2023-04-13T19:05:47.229Z,10.38
2023-04-13T19:08:13.912Z,10.36
2023-04-13T19:10:41.607Z,10.33
2023-04-13T19:13:08.123Z,10.32
2023-04-13T19:15:35.649Z,10.25
2023-04-13T19:18:04.170Z,10.26
2023-04-13T19:20:31.108Z,10.29
2023-04-13T19:22:57.673Z,10.27
2023-04-13T19:25:24.179Z,10.25
2023-04-13T19:27:51.013Z,10.25
2023-04-13T19:30:19.092Z,10.22
2023-04-13T19:32:47.885Z,10.20
2023-04-13T19:35:14.792Z,10.15
2023-04-13T19:37:41.805Z,10.02
2023-04-13T19:40:15.354Z,10.05
2023-04-13T19:42:44.012Z,10.03
2023-04-13T19:45:12.187Z,9.94
2023-04-13T19:47:39.807Z,9.93
2023-04-13T19:50:09.333Z,9.47
2023-04-13T19:52:36.126Z,9.52
2023-04-13T19:55:02.858Z,9.69
2023-04-13T19:57:30.569Z,9.57
2023-04-13T19:59:57.622Z,9.41
2023-04-13T20:02:24.281Z,9.29
2023-04-13T20:04:51.049Z,9.12
2023-04-13T20:07:17.877Z,9.10
2023-04-13T20:09:44.698Z,9.00
2023-04-13T20:12:12.014Z,8.89
2023-04-13T20:14:41.922Z,8.80
2023-04-13T20:17:09.004Z,8.79
2023-04-13T20:19:36.371Z,8.62
2023-04-13T20:22:04.218Z,8.52
2023-04-13T20:24:31.508Z,8.41
2023-04-13T20:26:58.634Z,8.17
2023-04-13T20:29:26.963Z,8.28
2023-04-13T20:31:54.369Z,8.19
2023-04-13T20:34:21.839Z,8.12
2023-04-13T20:36:48.320Z,8.04
2023-04-13T20:39:14.968Z,8.04
2023-04-13T20:41:41.459Z,8.00
2023-04-13T20:44:09.939Z,7.76
2023-04-13T20:46:37.520Z,7.88
2023-04-13T20:49:05.032Z,7.82
2023-04-13T20:51:33.650Z,7.70
2023-04-13T20:54:02.890Z,7.70
2023-04-13T20:56:29.894Z,7.65
2023-04-13T20:58:57.722Z,7.59
2023-04-13T21:01:27.997Z,7.55
2023-04-13T21:03:54.460Z,7.49
2023-04-13T21:06:22.892Z,7.47
2023-04-13T21:08:49.598Z,7.44
2023-04-13T21:11:16.219Z,7.27
2023-04-13T21:13:42.843Z,7.36
2023-04-13T21:16:11.103Z,7.06
2023-04-13T21:18:37.638Z,7.28
2023-04-13T21:21:06.142Z,7.24
2023-04-13T21:23:32.789Z,7.21
2023-04-13T21:25:59.282Z,7.17
2023-04-13T21:28:26.278Z,7.13
2023-04-13T21:30:52.741Z,6.92
2023-04-13T21:33:19.207Z,7.04
2023-04-13T21:35:45.692Z,6.98
2023-04-13T21:38:12.177Z,6.96
2023-04-13T21:40:38.691Z,6.88
2023-04-13T21:43:05.285Z,6.87
2023-04-13T21:45:32.106Z,6.85
2023-04-13T21:47:58.736Z,6.82
2023-04-13T21:50:25.224Z,6.74
2023-04-13T21:52:51.873Z,6.72
2023-04-13T21:55:18.500Z,6.66
2023-04-13T21:57:45.873Z,6.61
2023-04-13T22:00:14.353Z,6.47
2023-04-13T22:02:41.674Z,6.52
2023-04-13T22:05:09.975Z,6.43
2023-04-13T22:07:42.386Z,6.42
2023-04-13T22:10:12.911Z,6.33
2023-04-13T22:12:39.383Z,6.30
2023-04-13T22:15:06.436Z,6.05
2023-04-13T22:17:32.913Z,6.11
2023-04-13T22:19:59.428Z,6.20
2023-04-13T22:22:25.826Z,6.17
2023-04-13T22:24:53.101Z,6.03
2023-04-13T22:27:19.631Z,6.07
2023-04-13T22:29:47.412Z,6.04
2023-04-13T22:32:14.187Z,6.02
2023-04-13T22:34:40.603Z,6.00
2023-04-13T22:37:07.101Z,5.97
2023-04-13T22:39:33.557Z,5.94
2023-04-13T22:42:00.044Z,5.81
2023-04-13T22:44:32.420Z,5.93
2023-04-13T22:46:58.981Z,5.88
2023-04-13T22:49:25.575Z,5.87
2023-04-13T22:51:51.993Z,5.60
2023-04-13T22:54:18.452Z,5.83
2023-04-13T22:56:44.849Z,5.80
2023-04-13T22:59:11.238Z,5.78
2023-04-13T23:01:37.777Z,5.67
2023-04-13T23:04:04.764Z,5.73
2023-04-13T23:06:31.644Z,5.69
2023-04-13T23:08:59.483Z,5.68
2023-04-13T23:11:26.168Z,5.67
2023-04-13T23:13:56.637Z,5.65
2023-04-13T23:16:23.241Z,5.64
2023-04-13T23:18:49.744Z,5.60
2023-04-13T23:21:16.314Z,5.60
2023-04-13T23:23:42.834Z,5.59
2023-04-13T23:26:09.333Z,5.57
2023-04-13T23:28:35.941Z,5.56
2023-04-13T23:31:08.731Z,5.53
2023-04-13T23:33:36.028Z,5.50
2023-04-13T23:36:03.013Z,5.48
2023-04-13T23:38:30.732Z,5.46
2023-04-13T23:40:57.739Z,5.39
2023-04-13T23:43:24.955Z,5.35
2023-04-13T23:45:52.901Z,5.26
2023-04-13T23:48:21.291Z,5.36
2023-04-13T23:50:48.191Z,5.33
2023-04-13T23:53:15.447Z,5.23
2023-04-13T23:55:42.323Z,5.35
2023-04-13T23:58:08.787Z,5.34
